createdAt,value
2023-04-17T00:00:38.721Z,60.7
2023-04-17T00:02:38.957Z,60
2023-04-17T00:04:38.903Z,60.5
2023-04-17T00:06:38.764Z,60
2023-04-17T00:08:38.728Z,60
2023-04-17T00:10:38.692Z,60.1
2023-04-17T00:12:40.060Z,60.8
2023-04-17T00:14:38.849Z,60.5
2023-04-17T00:16:38.778Z,60.2
2023-04-17T00:18:38.699Z,60.4
2023-04-17T00:20:38.672Z,60.9
2023-04-17T00:22:38.719Z,61.3
2023-04-17T00:24:38.721Z,60.6
2023-04-17T00:26:39.752Z,60.6
2023-04-17T00:28:38.746Z,60.9
2023-04-17T00:30:38.788Z,61.4
2023-04-17T00:32:38.952Z,61.3
2023-04-17T00:34:38.698Z,61.2
2023-04-17T00:36:38.691Z,61.4
2023-04-17T00:38:38.676Z,61.4
2023-04-17T00:40:38.747Z,61.9
2023-04-17T00:42:38.779Z,61.8
2023-04-17T00:44:38.746Z,62.4
2023-04-17T00:46:39.682Z,62.2
2023-04-17T00:48:38.771Z,62
2023-04-17T00:50:38.737Z,62
2023-04-17T00:52:38.750Z,63.6
2023-04-17T00:54:38.837Z,63.6
2023-04-17T00:56:38.852Z,64.9
2023-04-17T00:58:38.776Z,64.6
2023-04-17T01:00:38.753Z,64.2
2023-04-17T01:02:38.843Z,64.3
2023-04-17T01:04:39.904Z,64.3
2023-04-17T01:06:38.761Z,64.4
2023-04-17T01:08:38.713Z,65.6
2023-04-17T01:10:38.892Z,66.6
2023-04-17T01:12:38.637Z,65
2023-04-17T01:14:38.730Z,65.7
2023-04-17T01:16:38.698Z,65.9
2023-04-17T01:18:38.730Z,66.4
2023-04-17T01:20:38.700Z,66.5
2023-04-17T01:22:38.760Z,66.1
2023-04-17T01:24:38.651Z,65.6
2023-04-17T01:26:40.121Z,65.7
2023-04-17T01:28:38.669Z,66.1
2023-04-17T01:30:38.737Z,66.2
2023-04-17T01:32:38.721Z,65.8
2023-04-17T01:34:38.633Z,66.6
2023-04-17T01:36:38.765Z,66.9
2023-04-17T01:38:38.773Z,67.5
2023-04-17T01:40:38.644Z,66.8
2023-04-17T01:42:38.598Z,67.3
2023-04-17T01:44:38.757Z,67
2023-04-17T01:46:38.755Z,66.9
2023-04-17T01:48:38.630Z,66.7
2023-04-17T01:50:38.596Z,66.6
2023-04-17T01:52:38.630Z,66.8
2023-04-17T01:54:38.634Z,67.7
2023-04-17T01:56:38.610Z,66.6
2023-04-17T01:58:38.594Z,67.3
2023-04-17T02:00:38.752Z,67.6
2023-04-17T02:02:38.842Z,67.6
2023-04-17T02:04:38.708Z,67.4
2023-04-17T02:06:38.653Z,67.1
2023-04-17T02:08:38.699Z,67.2
2023-04-17T02:10:38.620Z,66.9
2023-04-17T02:12:38.643Z,69
2023-04-17T02:14:38.649Z,68.8
2023-04-17T02:16:38.670Z,68
2023-04-17T02:18:38.565Z,67.6
2023-04-17T02:20:38.586Z,68.3
2023-04-17T02:22:38.846Z,68.5
2023-04-17T02:24:38.666Z,69.8
2023-04-17T02:26:38.615Z,68.6
2023-04-17T02:28:38.662Z,68.6
2023-04-17T02:30:38.614Z,69.5
2023-04-17T02:32:38.587Z,70.2
2023-04-17T02:34:38.584Z,68.8
2023-04-17T02:36:38.731Z,69.3
2023-04-17T02:38:38.603Z,69.2
2023-04-17T02:40:38.609Z,69.7
2023-04-17T02:42:38.659Z,69.8
2023-04-17T02:44:38.569Z,69.1
2023-04-17T02:46:38.628Z,70.8
2023-04-17T02:48:38.693Z,69.1
2023-04-17T02:50:38.586Z,69.6
2023-04-17T02:52:38.509Z,69.4
2023-04-17T02:54:38.646Z,69.9
2023-04-17T02:56:38.633Z,70
2023-04-17T02:58:38.559Z,69.6
2023-04-17T03:00:38.779Z,70.5
2023-04-17T03:02:38.577Z,70.5
2023-04-17T03:04:38.533Z,70
2023-04-17T03:06:38.617Z,71.1
2023-04-17T03:08:38.937Z,70.2
2023-04-17T03:10:38.576Z,69.6
2023-04-17T03:12:38.599Z,70.5
2023-04-17T03:14:38.537Z,70
2023-04-17T03:16:38.899Z,69.9
2023-04-17T03:18:38.581Z,69.8
2023-04-17T03:20:38.589Z,69.9
2023-04-17T03:22:38.534Z,69.6
2023-04-17T03:24:38.611Z,70
2023-04-17T03:26:38.558Z,69.8
2023-04-17T03:28:38.576Z,69.7
2023-04-17T03:30:38.527Z,70.1
2023-04-17T03:32:38.595Z,70.7
2023-04-17T03:34:38.541Z,70.7
2023-04-17T03:36:38.662Z,70.7
2023-04-17T03:38:38.537Z,70.1
2023-04-17T03:40:38.523Z,70
2023-04-17T03:42:38.590Z,70.3
2023-04-17T03:44:38.614Z,70.7
2023-04-17T03:46:38.470Z,70.2
2023-04-17T03:48:38.528Z,70
2023-04-17T03:50:38.528Z,70.4
2023-04-17T03:52:38.555Z,70
2023-04-17T03:54:38.531Z,70
2023-04-17T03:56:38.527Z,70
2023-04-17T03:58:38.485Z,69.8
2023-04-17T04:00:38.608Z,69.8
2023-04-17T04:02:38.685Z,70.1
2023-04-17T04:04:38.624Z,70.5
2023-04-17T04:06:38.539Z,69.8
2023-04-17T04:08:38.536Z,69.6
2023-04-17T04:10:38.514Z,69.4
2023-04-17T04:12:38.445Z,69.8
2023-04-17T04:14:40.467Z,69.5
2023-04-17T04:16:38.544Z,69.8
2023-04-17T04:18:38.529Z,69.5
2023-04-17T04:20:38.517Z,69.3
2023-04-17T04:22:38.591Z,69.2
2023-04-17T04:24:38.494Z,68.9
2023-04-17T04:26:38.509Z,69.2
2023-04-17T04:28:38.517Z,69.1
2023-04-17T04:30:38.445Z,69.1
2023-04-17T04:32:38.446Z,68.8
2023-04-17T04:34:38.523Z,69.2
2023-04-17T04:36:38.473Z,69.7
2023-04-17T04:38:38.454Z,69.2
2023-04-17T04:40:38.515Z,69
2023-04-17T04:42:38.427Z,69.6
2023-04-17T04:44:38.476Z,69.1
2023-04-17T04:46:38.487Z,69.5
2023-04-17T04:48:39.915Z,69.4
2023-04-17T04:50:38.423Z,68.9
2023-04-17T04:52:38.395Z,69
2023-04-17T04:54:38.442Z,68.9
2023-04-17T04:56:38.525Z,68.7
2023-04-17T04:58:38.415Z,68.7
2023-04-17T05:00:38.422Z,68.7
2023-04-17T05:02:38.562Z,68.6
2023-04-17T05:04:38.523Z,68.5
2023-04-17T05:06:38.423Z,68.6
2023-04-17T05:08:38.405Z,68.5
2023-04-17T05:10:38.480Z,68.6
2023-04-17T05:12:38.418Z,68.7
2023-04-17T05:14:38.472Z,68.7
2023-04-17T05:16:38.462Z,68.6
2023-04-17T05:18:38.421Z,68.6
2023-04-17T05:20:38.407Z,68.4
2023-04-17T05:22:38.444Z,68.5
2023-04-17T05:24:38.378Z,68.9
2023-04-17T05:26:38.412Z,68.6
2023-04-17T05:28:40.734Z,68.6
2023-04-17T05:30:38.397Z,68.6
2023-04-17T05:32:38.406Z,68.6
2023-04-17T05:34:38.402Z,68.8
2023-04-17T05:36:38.357Z,68.6
2023-04-17T05:38:38.357Z,68.4
2023-04-17T05:40:38.387Z,68.7
2023-04-17T05:42:38.353Z,68.8
2023-04-17T05:44:38.475Z,69.1
2023-04-17T05:46:38.549Z,68.9
2023-04-17T05:48:38.361Z,69
2023-04-17T05:50:38.329Z,69
2023-04-17T05:52:39.586Z,68.6
2023-04-17T05:54:38.353Z,68.5
2023-04-17T05:56:38.354Z,68.7
2023-04-17T05:58:38.356Z,68.9
2023-04-17T06:00:38.359Z,68.9
2023-04-17T06:02:38.486Z,68.8
2023-04-17T06:04:38.494Z,69.1
2023-04-17T06:06:38.463Z,68.9
2023-04-17T06:08:38.385Z,68.9
2023-04-17T06:10:38.318Z,68.9
2023-04-17T06:12:38.379Z,69.1
2023-04-17T06:14:38.323Z,69
2023-04-17T06:16:38.410Z,68.8
2023-04-17T06:18:38.332Z,68.8
2023-04-17T06:20:40.090Z,68.6
2023-04-17T06:22:38.329Z,68.6
2023-04-17T06:24:38.371Z,68.7
2023-04-17T06:26:38.346Z,68.7
2023-04-17T06:28:38.424Z,68.8
2023-04-17T06:30:38.458Z,69.2
2023-04-17T06:32:38.322Z,69.4
2023-04-17T06:34:46.251Z,69.1
2023-04-17T06:36:38.375Z,69
2023-04-17T06:38:38.386Z,69.1
2023-04-17T06:40:38.303Z,69.3
2023-04-17T06:42:40.150Z,69.3
2023-04-17T06:44:38.341Z,69.4
2023-04-17T06:46:38.319Z,69.7
2023-04-17T06:48:38.395Z,69.5
2023-04-17T06:50:38.322Z,69.1
2023-04-17T06:52:38.364Z,69.2
2023-04-17T06:54:38.329Z,68.9
2023-04-17T06:56:38.269Z,69.3
2023-04-17T06:58:38.341Z,69.8
2023-04-17T07:00:38.331Z,69.2
2023-04-17T07:02:38.378Z,69.2
2023-04-17T07:04:38.409Z,69.2
2023-04-17T07:06:38.241Z,69.8
2023-04-17T07:08:38.243Z,69.8
2023-04-17T07:10:38.328Z,69.3
2023-04-17T07:12:38.262Z,69.7
2023-04-17T07:14:38.335Z,69.5
2023-04-17T07:16:38.322Z,69.4
2023-04-17T07:18:38.268Z,69.9
2023-04-17T07:20:38.254Z,69.6
2023-04-17T07:22:38.465Z,69.5
2023-04-17T07:24:38.262Z,69.2
2023-04-17T07:26:38.270Z,69.2
2023-04-17T07:28:38.346Z,69.1
2023-04-17T07:30:38.307Z,69.1
2023-04-17T07:32:38.248Z,69.4
2023-04-17T07:34:38.285Z,69.6
2023-04-17T07:36:38.362Z,69.4
2023-04-17T07:38:40.395Z,69.7
2023-04-17T07:40:38.248Z,69.7
2023-04-17T07:42:38.217Z,69.5
2023-04-17T07:44:38.268Z,69.5
2023-04-17T07:46:38.304Z,69.4
2023-04-17T07:48:38.280Z,69.4
2023-04-17T07:50:38.261Z,69.5
2023-04-17T07:52:38.278Z,70.2
2023-04-17T07:54:38.249Z,69.9
2023-04-17T07:56:38.184Z,70.1
2023-04-17T07:58:38.270Z,70.3
2023-04-17T08:00:38.224Z,69.6
2023-04-17T08:02:38.337Z,69.5
2023-04-17T08:04:38.485Z,69.7
2023-04-17T08:06:38.224Z,69.7
2023-04-17T08:08:38.297Z,69.6
2023-04-17T08:10:38.214Z,69.6
2023-04-17T08:12:38.317Z,69.5
2023-04-17T08:14:38.222Z,69.6
2023-04-17T08:16:38.665Z,69.4
2023-04-17T08:18:38.270Z,69.5
2023-04-17T08:20:38.272Z,69.4
2023-04-17T08:22:38.185Z,69.5
2023-04-17T08:24:38.266Z,69.8
2023-04-17T08:26:38.212Z,69.5
2023-04-17T08:28:38.236Z,69.9
2023-04-17T08:30:38.320Z,69.8
2023-04-17T08:32:38.253Z,69.8
2023-04-17T08:34:38.202Z,70.4
2023-04-17T08:36:38.111Z,70.1
2023-04-17T08:38:38.262Z,70.2
2023-04-17T08:40:38.261Z,70.1
2023-04-17T08:42:38.122Z,70.2
2023-04-17T08:44:38.169Z,70.5
2023-04-17T08:46:38.450Z,70.3
2023-04-17T08:48:38.137Z,70.7
2023-04-17T08:50:38.165Z,70.6
2023-04-17T08:52:38.194Z,70.6
2023-04-17T08:54:38.287Z,70.9
2023-04-17T08:56:38.164Z,70.7
2023-04-17T08:58:38.271Z,70.8
2023-04-17T09:00:38.164Z,70.7
2023-04-17T09:02:38.252Z,71
2023-04-17T09:04:38.228Z,71.1
2023-04-17T09:06:38.130Z,71
2023-04-17T09:08:38.122Z,70.8
2023-04-17T09:10:38.271Z,71
2023-04-17T09:12:38.123Z,70.9
2023-04-17T09:14:38.326Z,71
2023-04-17T09:16:38.293Z,71.3
2023-04-17T09:18:38.137Z,71.2
2023-04-17T09:20:38.129Z,71
2023-04-17T09:22:38.124Z,71
2023-04-17T09:24:38.161Z,71
2023-04-17T09:26:38.187Z,71.1
2023-04-17T09:28:38.158Z,71.2
2023-04-17T09:30:38.126Z,71.1
2023-04-17T09:32:38.347Z,71.3
2023-04-17T09:34:38.159Z,71.7
2023-04-17T09:36:38.269Z,71.5
2023-04-17T09:38:38.247Z,71.3
2023-04-17T09:40:38.119Z,71.2
2023-04-17T09:42:38.076Z,71.3
2023-04-17T09:44:38.160Z,71.7
2023-04-17T09:46:38.431Z,71.7
2023-04-17T09:48:38.090Z,71.5
2023-04-17T09:50:38.959Z,71.5
2023-04-17T09:52:38.113Z,72
2023-04-17T09:54:38.532Z,71.8
2023-04-17T09:56:38.116Z,71.9
2023-04-17T09:58:38.150Z,71.9
2023-04-17T10:00:38.252Z,71.9
2023-04-17T10:02:38.209Z,72.1
2023-04-17T10:04:38.193Z,71.9
2023-04-17T10:06:38.069Z,72.4
2023-04-17T10:08:38.166Z,72.1
2023-04-17T10:10:38.065Z,72
2023-04-17T10:12:38.128Z,72
2023-04-17T10:14:38.134Z,72
2023-04-17T10:16:38.127Z,72
2023-04-17T10:18:38.052Z,71.9
2023-04-17T10:20:38.103Z,71.8
2023-04-17T10:22:38.152Z,71.8
2023-04-17T10:24:38.068Z,71.4
2023-04-17T10:26:38.136Z,71.1
2023-04-17T10:28:38.089Z,70.9
2023-04-17T10:30:38.057Z,71
2023-04-17T10:32:38.117Z,70.5
2023-04-17T10:34:38.103Z,70.8
2023-04-17T10:36:38.060Z,70.6
2023-04-17T10:38:38.096Z,70.7
2023-04-17T10:40:38.022Z,70.4
2023-04-17T10:42:38.178Z,70.4
2023-04-17T10:44:38.040Z,70.5
2023-04-17T10:46:39.314Z,70.2
2023-04-17T10:48:38.124Z,66.7
2023-04-17T10:50:38.125Z,66.1
2023-04-17T10:52:38.001Z,65.8
2023-04-17T10:54:38.016Z,66.9
2023-04-17T10:56:38.110Z,66
2023-04-17T10:58:38.025Z,65.4
2023-04-17T11:00:38.042Z,64.3
2023-04-17T11:02:38.138Z,64.8
2023-04-17T11:04:38.019Z,64.5
2023-04-17T11:06:38.086Z,64.2
2023-04-17T11:08:37.990Z,64.6
2023-04-17T11:10:38.000Z,63.9
2023-04-17T11:12:37.989Z,63.5
2023-04-17T11:14:38.058Z,64.1
2023-04-17T11:16:38.078Z,63.7
2023-04-17T11:18:37.985Z,64.4
2023-04-17T11:20:38.018Z,64
2023-04-17T11:22:38.058Z,64.3
2023-04-17T11:24:38.018Z,64.2
2023-04-17T11:26:38.019Z,64.4
2023-04-17T11:28:38.033Z,62.5
2023-04-17T11:30:37.954Z,62.5
2023-04-17T11:32:38.073Z,63.3
2023-04-17T11:34:38.159Z,63
2023-04-17T11:36:38.019Z,63.5
2023-04-17T11:38:37.963Z,63.5
2023-04-17T11:40:37.972Z,63.4
2023-04-17T11:42:38.006Z,63.8
2023-04-17T11:44:38.294Z,63.8
2023-04-17T11:46:37.990Z,63.8
2023-04-17T11:48:37.945Z,64.1
2023-04-17T11:50:37.940Z,64
2023-04-17T11:52:37.957Z,63
2023-04-17T11:54:38.074Z,62.5
2023-04-17T11:56:38.015Z,61.8
2023-04-17T11:58:38.010Z,62.4
2023-04-17T12:00:38.138Z,61.8
2023-04-17T12:02:38.093Z,61.5
2023-04-17T12:04:38.204Z,62.2
2023-04-17T12:06:37.932Z,62.2
2023-04-17T12:08:37.935Z,60.7
2023-04-17T12:10:37.953Z,61.3
2023-04-17T12:12:37.953Z,61.4
2023-04-17T12:14:37.968Z,60.5
2023-04-17T12:16:38.111Z,60.3
2023-04-17T12:18:38.139Z,60.4
2023-04-17T12:20:37.997Z,60.4
2023-04-17T12:22:38.060Z,59.7
2023-04-17T12:24:37.965Z,59.8
2023-04-17T12:26:37.928Z,60.2
2023-04-17T12:28:37.955Z,60.7
2023-04-17T12:30:37.967Z,59.6
2023-04-17T12:32:37.945Z,58.5
2023-04-17T12:34:38.119Z,59.2
2023-04-17T12:36:37.942Z,58.7
2023-04-17T12:38:37.936Z,58.4
2023-04-17T12:40:37.938Z,58.7
2023-04-17T12:42:46.390Z,57.9
2023-04-17T12:44:37.962Z,58.3
2023-04-17T12:46:38.149Z,58.6
2023-04-17T12:48:37.881Z,57.2
2023-04-17T12:50:37.941Z,56.9
2023-04-17T12:52:37.911Z,56.6
2023-04-17T12:54:37.932Z,56.5
2023-04-17T12:56:37.923Z,54.4
2023-04-17T12:58:37.879Z,54.9
2023-04-17T13:00:38.004Z,54.7
2023-04-17T13:02:38.204Z,54.2
2023-04-17T13:04:38.004Z,53.2
2023-04-17T13:06:37.907Z,51.1
2023-04-17T13:08:37.914Z,50.8
2023-04-17T13:10:37.888Z,51.1
2023-04-17T13:12:37.951Z,49
2023-04-17T13:14:37.985Z,49.2
2023-04-17T13:16:37.882Z,49.7
2023-04-17T13:18:37.957Z,50.6
2023-04-17T13:20:37.847Z,50.4
2023-04-17T13:22:37.848Z,50.9
2023-04-17T13:24:37.871Z,51.2
2023-04-17T13:26:38.463Z,51.8
2023-04-17T13:28:37.902Z,52.1
2023-04-17T13:30:37.932Z,53.3
2023-04-17T13:32:37.947Z,52.9
2023-04-17T13:34:37.880Z,53.8
2023-04-17T13:36:37.823Z,53.3
2023-04-17T13:38:37.975Z,53
2023-04-17T13:40:37.841Z,52.9
2023-04-17T13:42:37.837Z,53.1
2023-04-17T13:44:37.871Z,52.5
2023-04-17T13:46:37.927Z,53.7
2023-04-17T13:48:37.833Z,53.4
2023-04-17T13:50:37.840Z,53.6
2023-04-17T13:52:37.841Z,54.2
2023-04-17T13:54:38.072Z,52.8
2023-04-17T13:56:37.900Z,52.1
2023-04-17T13:58:37.878Z,52.4
2023-04-17T14:00:37.841Z,51.4
2023-04-17T14:02:38.066Z,52.1
2023-04-17T14:04:37.872Z,52.4
2023-04-17T14:06:37.796Z,51.9
2023-04-17T14:08:37.784Z,52
2023-04-17T14:10:37.787Z,53.2
2023-04-17T14:12:37.812Z,52.5
2023-04-17T14:14:37.800Z,52.8
2023-04-17T14:16:37.801Z,52.7
2023-04-17T14:18:37.810Z,52.5
2023-04-17T14:20:37.896Z,52.7
2023-04-17T14:22:37.806Z,52.7
2023-04-17T14:24:37.873Z,52.5
2023-04-17T14:26:37.832Z,52.9
2023-04-17T14:28:37.815Z,53.5
2023-04-17T14:30:37.787Z,53.5
2023-04-17T14:32:37.809Z,53.1
2023-04-17T14:34:37.819Z,53
2023-04-17T14:36:37.819Z,52.9
2023-04-17T14:38:39.292Z,52.1
2023-04-17T14:40:38.024Z,52.6
2023-04-17T14:42:47.278Z,53
2023-04-17T14:44:37.980Z,52.9
2023-04-17T14:46:37.846Z,52.8
2023-04-17T14:48:47.840Z,52.8
2023-04-17T14:50:37.812Z,52.9
2023-04-17T14:52:37.830Z,52.9
2023-04-17T14:54:37.855Z,52.4
2023-04-17T14:56:37.758Z,51.4
2023-04-17T14:58:37.756Z,50.8
2023-04-17T15:00:37.798Z,52
2023-04-17T15:02:37.874Z,52.8
2023-04-17T15:04:37.908Z,53.3
2023-04-17T15:06:37.791Z,53
2023-04-17T15:08:37.758Z,51.9
2023-04-17T15:10:48.252Z,52.3
2023-04-17T15:12:37.730Z,52.8
2023-04-17T15:14:37.738Z,51.7
2023-04-17T15:16:37.817Z,50.9
2023-04-17T15:18:37.723Z,50.7
2023-04-17T15:20:37.753Z,49.7
2023-04-17T15:22:37.744Z,50.8
2023-04-17T15:24:37.792Z,49.2
2023-04-17T15:26:37.681Z,49.8
2023-04-17T15:28:37.674Z,49
2023-04-17T15:30:37.689Z,48.8
2023-04-17T15:32:37.766Z,49.2
2023-04-17T15:34:37.743Z,50
2023-04-17T15:36:37.729Z,50.3
2023-04-17T15:38:37.712Z,50.8
2023-04-17T15:40:37.741Z,49.1
2023-04-17T15:42:37.709Z,48.7
2023-04-17T15:44:37.747Z,48.6
2023-04-17T15:46:37.790Z,45.5
2023-04-17T15:48:37.679Z,46.3
2023-04-17T15:50:37.740Z,47.3
2023-04-17T15:52:37.722Z,47.1
2023-04-17T15:54:37.719Z,47.8
2023-04-17T15:56:37.676Z,47.9
2023-04-17T15:58:37.655Z,47.3
2023-04-17T16:00:37.736Z,45.5
2023-04-17T16:02:37.841Z,46.6
2023-04-17T16:04:37.787Z,46.3
2023-04-17T16:06:37.754Z,48.1
2023-04-17T16:08:37.637Z,48
2023-04-17T16:10:37.875Z,48.3
2023-04-17T16:12:38.706Z,47.9
2023-04-17T16:14:37.784Z,47.5
2023-04-17T16:16:38.025Z,47.2
2023-04-17T16:18:37.644Z,46.8
2023-04-17T16:20:37.644Z,47.1
2023-04-17T16:22:37.669Z,46.1
2023-04-17T16:24:37.758Z,46.9
2023-04-17T16:26:37.724Z,46
2023-04-17T16:28:37.649Z,45.5
2023-04-17T16:30:37.687Z,46.6
2023-04-17T16:32:37.759Z,44.2
2023-04-17T16:34:37.666Z,45.3
2023-04-17T16:36:37.693Z,44.9
2023-04-17T16:38:37.674Z,44.6
2023-04-17T16:40:37.682Z,41.5
2023-04-17T16:42:37.640Z,42.1
2023-04-17T16:44:37.676Z,44.4
2023-04-17T16:48:37.894Z,43.8
2023-04-17T16:50:37.689Z,44
2023-04-17T16:52:37.654Z,41.6
2023-04-17T16:54:37.589Z,39.1
2023-04-17T16:56:37.626Z,38.6
2023-04-17T16:58:37.680Z,40.4
2023-04-17T17:00:37.692Z,40.8
2023-04-17T17:02:37.763Z,40.1
2023-04-17T17:04:37.669Z,39.5
2023-04-17T17:06:37.660Z,37.6
2023-04-17T17:08:37.620Z,37.7
2023-04-17T17:10:37.585Z,38.2
2023-04-17T17:12:37.631Z,39.4
2023-04-17T17:14:37.607Z,39.6
2023-04-17T17:16:37.721Z,40.2
2023-04-17T17:18:37.571Z,39.7
2023-04-17T17:20:37.671Z,39.1
2023-04-17T17:22:37.647Z,38.2
2023-04-17T17:24:37.602Z,39.3
2023-04-17T17:26:37.556Z,40.3
2023-04-17T17:28:37.634Z,39.4
2023-04-17T17:30:37.598Z,40
2023-04-17T17:32:37.612Z,40.4
2023-04-17T17:34:37.571Z,40.3
2023-04-17T17:36:37.585Z,41.4
2023-04-17T17:38:37.622Z,40.6
2023-04-17T17:40:37.583Z,39.2
2023-04-17T17:42:37.575Z,40.4
2023-04-17T17:44:37.583Z,41.5
2023-04-17T17:46:37.635Z,39.5
2023-04-17T17:48:37.552Z,41
2023-04-17T17:50:37.642Z,39.7
2023-04-17T17:52:37.554Z,40.7
2023-04-17T17:54:37.585Z,39.7
2023-04-17T17:56:37.561Z,37.3
2023-04-17T17:58:37.554Z,38
2023-04-17T18:00:37.642Z,38.5
2023-04-17T18:02:37.707Z,39
2023-04-17T18:04:37.629Z,38.9
2023-04-17T18:06:37.571Z,38.7
2023-04-17T18:08:37.525Z,39.4
2023-04-17T18:10:37.587Z,37.3
2023-04-17T18:12:37.586Z,38.2
2023-04-17T18:14:37.570Z,37.5
2023-04-17T18:16:37.612Z,38.1
2023-04-17T18:18:37.561Z,38
2023-04-17T18:20:37.527Z,40
2023-04-17T18:22:37.628Z,36.6
2023-04-17T18:24:37.567Z,38.1
2023-04-17T18:26:37.557Z,39.4
2023-04-17T18:28:37.573Z,38
2023-04-17T18:30:37.566Z,35.6
2023-04-17T18:32:37.566Z,35.8
2023-04-17T18:34:37.602Z,38.4
2023-04-17T18:36:37.594Z,34.8
2023-04-17T18:38:37.540Z,34.6
2023-04-17T18:40:37.573Z,34.9
2023-04-17T18:42:37.544Z,34.9
2023-04-17T18:44:37.590Z,34
2023-04-17T18:46:37.548Z,34
2023-04-17T18:48:37.567Z,33.2
2023-04-17T18:50:37.888Z,34.5
2023-04-17T18:52:37.524Z,34.9
2023-04-17T18:54:37.487Z,32.5
2023-04-17T18:56:37.507Z,34.8
2023-04-17T18:58:37.535Z,34.4
2023-04-17T19:00:37.659Z,34
2023-04-17T19:02:37.646Z,35.8
2023-04-17T19:04:38.683Z,36.1
2023-04-17T19:06:37.569Z,34.5
2023-04-17T19:08:37.494Z,35.3
2023-04-17T19:10:39.584Z,36
2023-04-17T19:12:37.513Z,34.5
2023-04-17T19:14:37.534Z,36.6
2023-04-17T19:16:37.586Z,33.7
2023-04-17T19:18:37.497Z,32.8
2023-04-17T19:20:37.461Z,32.5
2023-04-17T19:22:37.556Z,33.6
2023-04-17T19:24:37.507Z,33.7
2023-04-17T19:26:37.747Z,32.6
2023-04-17T19:28:37.443Z,34.3
2023-04-17T19:30:37.386Z,34.1
2023-04-17T19:32:37.577Z,34.3
2023-04-17T19:34:37.451Z,35.4
2023-04-17T19:36:37.451Z,35.2
2023-04-17T19:38:37.504Z,35.2
2023-04-17T19:40:37.482Z,34.8
2023-04-17T19:42:37.546Z,34.8
2023-04-17T19:44:37.489Z,34.7
2023-04-17T19:46:37.473Z,34.1
2023-04-17T19:48:37.537Z,34.6
2023-04-17T19:50:37.450Z,35.9
2023-04-17T19:52:37.435Z,36.1
2023-04-17T19:54:37.470Z,35.8
2023-04-17T19:56:37.481Z,36.5
2023-04-17T19:58:37.455Z,35.7
2023-04-17T20:00:37.474Z,36.5
2023-04-17T20:02:37.570Z,34.7
2023-04-17T20:04:37.447Z,34.8
2023-04-17T20:06:37.402Z,34.7
2023-04-17T20:08:37.541Z,35.7
2023-04-17T20:10:37.638Z,35.5
2023-04-17T20:12:37.531Z,36.3
2023-04-17T20:14:37.414Z,33.9
2023-04-17T20:16:37.505Z,33.7
2023-04-17T20:18:37.461Z,34.2
2023-04-17T20:20:37.481Z,35.3
2023-04-17T20:22:37.423Z,32.4
2023-04-17T20:24:37.640Z,33.8
2023-04-17T20:26:37.717Z,33.5
2023-04-17T20:28:37.451Z,33.4
2023-04-17T20:30:37.473Z,33.5
2023-04-17T20:32:37.503Z,33.4
2023-04-17T20:34:37.483Z,34.4
2023-04-17T20:36:37.393Z,34.2
2023-04-17T20:38:37.509Z,33
2023-04-17T20:40:37.419Z,33.7
2023-04-17T20:42:37.394Z,32.4
2023-04-17T20:44:37.445Z,32.4
2023-04-17T20:46:37.482Z,32.1
2023-04-17T20:48:37.379Z,33.1
2023-04-17T20:50:37.429Z,32.4
2023-04-17T20:52:37.383Z,31.4
2023-04-17T20:54:37.358Z,32.2
2023-04-17T20:56:37.367Z,33
2023-04-17T20:58:37.432Z,32.7
2023-04-17T21:00:42.083Z,32.7
2023-04-17T21:02:37.447Z,32.6
2023-04-17T21:04:37.419Z,31.8
2023-04-17T21:06:37.416Z,32.3
2023-04-17T21:08:37.411Z,32.1
2023-04-17T21:10:37.419Z,32.5
2023-04-17T21:12:37.435Z,32.3
2023-04-17T21:14:37.340Z,32.5
2023-04-17T21:16:38.523Z,32.2
2023-04-17T21:18:37.365Z,33.3
2023-04-17T21:20:37.342Z,33.4
2023-04-17T21:22:37.398Z,33.5
2023-04-17T21:24:37.386Z,34.1
2023-04-17T21:26:37.426Z,33.2
2023-04-17T21:28:37.342Z,34.2
2023-04-17T21:30:37.406Z,33.5
2023-04-17T21:32:37.460Z,32.2
2023-04-17T21:34:37.309Z,32.8
2023-04-17T21:36:37.402Z,33
2023-04-17T21:38:37.468Z,33.8
2023-04-17T21:40:37.329Z,34.6
2023-04-17T21:42:37.346Z,33.4
2023-04-17T21:44:37.425Z,33.6
2023-04-17T21:46:37.301Z,33.7
2023-04-17T21:48:37.313Z,33.5
2023-04-17T21:50:37.348Z,33.5
2023-04-17T21:52:37.320Z,33.6
2023-04-17T21:54:37.300Z,34.3
2023-04-17T21:56:37.344Z,34.8
2023-04-17T21:58:37.299Z,33.4
2023-04-17T22:00:37.331Z,33.6
2023-04-17T22:02:37.422Z,33.5
2023-04-17T22:04:39.104Z,33.6
2023-04-17T22:06:37.410Z,33.4
2023-04-17T22:08:37.338Z,34.1
2023-04-17T22:10:37.290Z,34.2
2023-04-17T22:12:37.325Z,34.2
2023-04-17T22:14:37.276Z,34.7
2023-04-17T22:16:37.329Z,33.4
2023-04-17T22:18:37.285Z,33.2
2023-04-17T22:20:37.312Z,33.3
2023-04-17T22:22:37.439Z,33.6
2023-04-17T22:24:37.300Z,33.9
2023-04-17T22:26:37.279Z,34.7
2023-04-17T22:28:37.315Z,34.8
2023-04-17T22:30:37.394Z,34.7
2023-04-17T22:32:37.436Z,35.3
2023-04-17T22:34:37.268Z,35.6
2023-04-17T22:36:37.324Z,34.9
2023-04-17T22:38:37.278Z,33.7
2023-04-17T22:40:37.318Z,35
2023-04-17T22:42:37.269Z,34.9
2023-04-17T22:44:37.285Z,34.7
2023-04-17T22:46:37.304Z,34.4
2023-04-17T22:48:37.264Z,35
2023-04-17T22:50:37.357Z,35.4
2023-04-17T22:52:37.306Z,35.6
2023-04-17T22:54:37.211Z,35.8
2023-04-17T22:56:37.357Z,36
2023-04-17T22:58:37.251Z,36.3
2023-04-17T23:00:37.250Z,35.8
2023-04-17T23:02:37.334Z,35.8
2023-04-17T23:04:37.324Z,35.3
2023-04-17T23:06:37.932Z,36
2023-04-17T23:08:37.255Z,36.3
2023-04-17T23:10:37.381Z,37.1
2023-04-17T23:12:37.314Z,36.6
2023-04-17T23:14:37.280Z,36.5
2023-04-17T23:16:37.357Z,36.8
2023-04-17T23:18:37.209Z,37.2
2023-04-17T23:20:37.272Z,37
2023-04-17T23:22:37.321Z,36.9
2023-04-17T23:24:37.191Z,36.4
2023-04-17T23:26:37.223Z,37.1
2023-04-17T23:28:37.203Z,37.4
2023-04-17T23:30:37.146Z,37.4
2023-04-17T23:32:37.275Z,37.4
2023-04-17T23:34:37.447Z,37.8
2023-04-17T23:36:37.422Z,38.1
2023-04-17T23:38:37.209Z,38.1
2023-04-17T23:40:37.251Z,38.1
2023-04-17T23:42:37.217Z,38.4
2023-04-17T23:44:37.174Z,38.5
2023-04-17T23:46:37.353Z,38.9
2023-04-17T23:48:37.204Z,38.9
2023-04-17T23:50:37.249Z,39
2023-04-17T23:52:37.280Z,39.2
2023-04-17T23:54:37.199Z,39.3
2023-04-17T23:56:37.204Z,39.4
2023-04-17T23:58:37.178Z,39.6
